Time;durP1;ratioP1;P1;durP2;ratioP2;P2;SDS_P1;SDS_P2;PMS_P1;PMS_P2;Temp;Humidity;BMP_temperature;BMP_pressure;BME280_temperature;BME280_humidity;BME280_pressure;Samples;Min_cycle;Max_cycle;Signal;HPM_P1;HPM_P2
2022/02/13 00:00:10;;;;;;;4.40;4.00;;;-2.30;99.90;;;;;;7398107;19;20360;-79
2022/02/13 00:02:39;;;;;;;5.68;4.20;;;-2.40;99.90;;;;;;7389153;19;20338;-80
2022/02/13 00:05:31;;;;;;;4.07;3.47;;;-2.40;99.90;;;;;;7377239;19;20328;-81
2022/02/13 00:08:07;;;;;;;5.03;3.83;;;-2.40;99.90;;;;;;7395589;19;20325;-80
2022/02/13 00:10:40;;;;;;;4.70;4.22;;;-2.40;99.90;;;;;;7344730;19;20363;-80
2022/02/13 00:13:06;;;;;;;4.43;4.03;;;-2.50;99.90;;;;;;7390808;19;20312;-79
2022/02/13 00:15:33;;;;;;;4.30;3.90;;;-2.40;99.90;;;;;;7397722;19;20365;-81
2022/02/13 00:18:00;;;;;;;4.38;3.83;;;-2.50;99.90;;;;;;7368301;19;20319;-80
2022/02/13 00:20:27;;;;;;;4.57;4.18;;;-2.50;99.90;;;;;;7395782;19;20335;-81
2022/02/13 00:22:55;;;;;;;4.10;3.70;;;-2.50;99.90;;;;;;7394169;19;20368;-79
2022/02/13 00:25:37;;;;;;;4.43;4.03;;;-2.60;99.90;;;;;;7389555;19;20316;-80
2022/02/13 00:28:18;;;;;;;5.27;3.63;;;-2.60;99.90;;;;;;7391532;19;20347;-80
2022/02/13 00:31:04;;;;;;;4.03;3.53;;;-2.60;99.90;;;;;;7396428;19;20370;-84
2022/02/13 00:33:31;;;;;;;4.07;3.67;;;-2.70;99.90;;;;;;7375131;19;20341;-80
2022/02/13 00:35:58;;;;;;;4.85;4.30;;;-2.60;99.90;;;;;;7396563;19;20343;-80
2022/02/13 00:38:25;;;;;;;4.72;3.60;;;-2.70;99.90;;;;;;7369253;19;20328;-80
2022/02/13 00:40:54;;;;;;;3.83;3.43;;;-2.70;99.90;;;;;;7397696;19;20354;-80
2022/02/13 00:43:40;;;;;;;5.45;4.60;;;-2.80;99.90;;;;;;7341886;19;20349;-80
2022/02/13 00:46:17;;;;;;;3.97;3.58;;;-2.80;99.90;;;;;;7396198;19;20325;-85
2022/02/13 00:48:48;;;;;;;4.88;4.25;;;-2.70;99.90;;;;;;7344157;19;20353;-82
2022/02/13 00:51:14;;;;;;;4.47;4.07;;;-2.80;99.90;;;;;;7393417;19;20538;-82
2022/02/13 00:53:40;;;;;;;4.22;3.88;;;-2.80;99.90;;;;;;7400141;19;20436;-81
2022/02/13 00:56:15;;;;;;;4.65;3.72;;;-2.70;99.90;;;;;;7349077;19;20357;-81
2022/02/13 00:58:41;;;;;;;4.25;3.85;;;-2.70;99.90;;;;;;7295484;19;2004193;-87
2022/02/13 01:01:07;;;;;;;5.97;4.63;;;-2.70;99.90;;;;;;7397690;19;20312;-83
2022/02/13 01:03:33;;;;;;;5.33;4.27;;;-2.60;99.90;;;;;;7397393;19;20313;-82
2022/02/13 01:06:02;;;;;;;6.68;4.45;;;-2.50;99.90;;;;;;7398879;19;20296;-84
2022/02/13 01:08:28;;;;;;;4.63;4.00;;;-2.60;99.90;;;;;;7396776;19;20312;-79
2022/02/13 01:10:54;;;;;;;4.35;3.95;;;-2.60;99.90;;;;;;7382622;19;20364;-80
2022/02/13 01:13:21;;;;;;;4.30;3.80;;;-2.60;99.90;;;;;;7398577;19;20362;-80
2022/02/13 01:15:47;;;;;;;4.50;3.95;;;-2.70;99.90;;;;;;7393601;19;20313;-79
2022/02/13 01:18:13;;;;;;;5.00;4.07;;;-2.70;99.90;;;;;;7399372;19;20373;-79
2022/02/13 01:20:39;;;;;;;4.80;4.05;;;-2.70;99.90;;;;;;7398773;19;20320;-81
2022/02/13 01:23:04;;;;;;;5.35;4.63;;;-2.60;99.90;;;;;;7394582;19;20332;-80
2022/02/13 01:25:31;;;;;;;4.97;4.20;;;-2.60;99.90;;;;;;7398710;19;20333;-81
2022/02/13 01:27:57;;;;;;;5.10;4.60;;;-2.50;99.90;;;;;;7398497;19;20320;-80
2022/02/13 01:30:23;;;;;;;5.53;4.83;;;-2.40;99.90;;;;;;7397887;19;20367;-82
2022/02/13 01:32:49;;;;;;;6.55;4.95;;;-2.40;99.90;;;;;;7398667;19;20309;-79
2022/02/13 01:35:15;;;;;;;5.72;5.13;;;-2.30;99.90;;;;;;7384778;19;20313;-81
2022/02/13 01:37:41;;;;;;;6.35;4.82;;;-2.20;99.90;;;;;;7397761;19;20336;-85
2022/02/13 01:40:07;;;;;;;5.80;4.78;;;-2.00;99.90;;;;;;7397659;19;20325;-80
2022/02/13 01:42:33;;;;;;;7.22;4.65;;;-2.00;99.90;;;;;;7398898;19;20344;-81
2022/02/13 01:44:59;;;;;;;6.13;5.03;;;-1.90;99.90;;;;;;7399276;19;20333;-81
2022/02/13 01:47:24;;;;;;;5.20;4.70;;;-1.90;99.90;;;;;;7395278;19;20324;-82
2022/02/13 01:49:50;;;;;;;7.97;4.95;;;-1.80;99.90;;;;;;7392446;19;20323;-79
2022/02/13 01:52:16;;;;;;;5.70;4.50;;;-1.70;99.90;;;;;;7394993;19;20333;-82
2022/02/13 01:54:42;;;;;;;4.83;4.30;;;-1.60;99.90;;;;;;7396607;19;20420;-80
2022/02/13 01:57:09;;;;;;;5.72;4.38;;;-1.40;99.90;;;;;;7396052;19;20312;-81
2022/02/13 01:59:38;;;;;;;5.45;4.95;;;-1.50;99.90;;;;;;7395069;19;20331;-80
2022/02/13 02:02:04;;;;;;;6.70;4.72;;;-1.40;99.90;;;;;;7372662;19;20324;-80
2022/02/13 02:04:30;;;;;;;4.70;4.20;;;-1.40;99.90;;;;;;7393789;19;20316;-80
2022/02/13 02:06:56;;;;;;;7.03;4.88;;;-1.30;99.90;;;;;;7391339;19;20309;-80
2022/02/13 02:09:25;;;;;;;4.70;4.22;;;-1.20;99.90;;;;;;7393139;19;20316;-79
2022/02/13 02:11:51;;;;;;;5.22;4.65;;;-1.20;99.90;;;;;;7391582;19;20427;-79
2022/02/13 02:14:17;;;;;;;5.25;4.75;;;-1.20;99.90;;;;;;7394738;19;20341;-81
2022/02/13 02:16:43;;;;;;;3.92;3.55;;;-1.00;99.90;;;;;;7395914;19;20658;-77
2022/02/13 02:19:10;;;;;;;5.25;4.55;;;-1.10;99.90;;;;;;7390507;19;20346;-80
2022/02/13 02:21:42;;;;;;;6.15;4.65;;;-1.00;99.90;;;;;;7395135;19;20336;-78
2022/02/13 02:24:11;;;;;;;5.72;4.55;;;-1.10;99.90;;;;;;7395798;19;20403;-81
2022/02/13 02:26:37;;;;;;;4.60;4.07;;;-1.20;99.90;;;;;;7390699;19;20847;-79
2022/02/13 02:29:02;;;;;;;4.73;4.17;;;-1.20;99.90;;;;;;7393761;19;20304;-80
2022/02/13 02:31:28;;;;;;;5.07;4.57;;;-1.20;99.90;;;;;;7396463;19;20346;-80
2022/02/13 02:33:54;;;;;;;4.97;4.47;;;-1.10;99.90;;;;;;7395988;19;20408;-80
2022/02/13 02:36:20;;;;;;;5.33;4.83;;;-1.20;99.90;;;;;;7395901;19;20347;-80
2022/02/13 02:38:46;;;;;;;4.68;3.80;;;-1.10;99.90;;;;;;7395523;19;20789;-78
2022/02/13 02:41:12;;;;;;;4.55;4.15;;;-1.10;99.90;;;;;;7391121;19;20333;-80
2022/02/13 02:43:38;;;;;;;4.20;3.80;;;-1.10;99.90;;;;;;7392671;19;20336;-80
2022/02/13 02:46:03;;;;;;;5.85;4.10;;;-1.10;99.90;;;;;;7387985;19;20603;-82
2022/02/13 02:48:29;;;;;;;4.22;3.83;;;-1.00;99.90;;;;;;7392234;19;20335;-80
2022/02/13 02:50:55;;;;;;;4.63;4.03;;;-1.20;99.90;;;;;;7393278;19;20943;-80
2022/02/13 02:53:21;;;;;;;5.93;4.50;;;-1.20;99.90;;;;;;7392386;19;20337;-79
2022/02/13 02:55:46;;;;;;;6.18;4.60;;;-1.20;99.90;;;;;;7392199;19;20995;-80
2022/02/13 02:58:12;;;;;;;6.07;4.70;;;-1.20;99.90;;;;;;7396877;19;20871;-79
2022/02/13 03:00:38;;;;;;;4.70;3.83;;;-1.20;99.90;;;;;;7377221;19;20356;-79
2022/02/13 03:03:04;;;;;;;4.63;4.10;;;-1.20;99.90;;;;;;7388339;19;20321;-79
2022/02/13 03:05:29;;;;;;;4.25;3.83;;;-1.10;99.90;;;;;;7388327;19;20345;-78
2022/02/13 03:07:55;;;;;;;5.73;4.03;;;-1.00;99.90;;;;;;7389975;19;20321;-78
2022/02/13 03:10:21;;;;;;;4.20;3.80;;;-1.00;99.90;;;;;;7392694;19;20328;-79
2022/02/13 03:12:46;;;;;;;5.45;4.60;;;-1.00;99.90;;;;;;7390535;19;20329;-78
2022/02/13 03:15:13;;;;;;;9.07;4.60;;;-0.90;99.90;;;;;;7390544;19;20343;-79
2022/02/13 03:17:38;;;;;;;5.90;4.65;;;-0.90;99.90;;;;;;7391022;19;20319;-78
2022/02/13 03:20:05;;;;;;;4.47;4.07;;;-0.90;99.90;;;;;;7396271;19;20341;-80
2022/02/13 03:22:31;;;;;;;5.07;4.40;;;-0.90;99.90;;;;;;7392827;19;20357;-79
2022/02/13 03:24:59;;;;;;;7.15;4.78;;;-0.90;99.90;;;;;;7393553;19;20309;-79
2022/02/13 03:27:28;;;;;;;4.33;3.40;;;-0.90;99.90;;;;;;7389124;19;20332;-78
2022/02/13 03:29:54;;;;;;;3.92;3.42;;;-1.00;99.90;;;;;;7388309;19;20335;-78
2022/02/13 03:32:20;;;;;;;4.28;3.88;;;-1.00;99.90;;;;;;7392234;19;20336;-79
2022/02/13 03:34:47;;;;;;;4.72;4.25;;;-1.10;99.90;;;;;;7389561;19;20415;-80
2022/02/13 03:37:14;;;;;;;5.13;4.00;;;-1.00;99.90;;;;;;7391877;19;20341;-78
2022/02/13 03:39:41;;;;;;;5.60;4.32;;;-1.10;99.90;;;;;;7389958;19;20313;-79
2022/02/13 03:42:07;;;;;;;4.10;3.70;;;-1.10;99.90;;;;;;7388386;19;20320;-79
2022/02/13 03:44:36;;;;;;;4.47;4.07;;;-1.20;99.90;;;;;;7390811;19;20360;-78
2022/02/13 03:47:03;;;;;;;6.10;4.25;;;-1.10;99.90;;;;;;7391273;19;20334;-80
2022/02/13 03:49:30;;;;;;;4.40;3.97;;;-1.00;99.90;;;;;;7389587;19;20335;-78
2022/02/13 03:51:56;;;;;;;4.10;3.80;;;-1.20;99.90;;;;;;7387864;19;20317;-78
2022/02/13 03:54:21;;;;;;;5.78;4.40;;;-1.00;99.90;;;;;;7389335;19;20838;-78
2022/02/13 03:56:47;;;;;;;6.07;4.77;;;-0.90;99.90;;;;;;7386778;19;20317;-79
2022/02/13 03:59:13;;;;;;;5.53;4.70;;;-0.90;99.90;;;;;;7389250;19;20333;-82
2022/02/13 04:01:39;;;;;;;5.22;4.00;;;-1.00;99.90;;;;;;7386558;19;20406;-78
2022/02/13 04:04:05;;;;;;;4.85;4.38;;;-0.90;99.90;;;;;;7388660;19;20336;-78
2022/02/13 04:06:31;;;;;;;4.55;4.13;;;-0.90;99.90;;;;;;7380554;19;20320;-80
2022/02/13 04:08:57;;;;;;;4.40;4.00;;;-0.80;99.90;;;;;;7384769;19;20341;-78
2022/02/13 04:11:22;;;;;;;4.97;4.43;;;-0.80;99.90;;;;;;7386719;19;20367;-81
2022/02/13 04:13:48;;;;;;;5.40;4.40;;;-0.90;99.90;;;;;;7391947;19;20385;-79
2022/02/13 04:16:14;;;;;;;4.70;4.10;;;-0.90;99.90;;;;;;7391118;19;20356;-81
2022/02/13 04:18:39;;;;;;;4.90;4.40;;;-0.90;99.90;;;;;;7390044;19;20349;-80
2022/02/13 04:21:05;;;;;;;4.97;4.13;;;-0.90;99.90;;;;;;7390179;19;20654;-76
2022/02/13 04:23:32;;;;;;;5.10;4.60;;;-0.90;99.90;;;;;;7390836;19;20312;-77
2022/02/13 04:26:00;;;;;;;4.95;3.95;;;-0.90;99.90;;;;;;7387663;19;20320;-82
2022/02/13 04:28:27;;;;;;;4.10;3.70;;;-0.80;99.90;;;;;;7383670;19;20353;-79
2022/02/13 04:30:54;;;;;;;4.57;4.17;;;-0.80;99.90;;;;;;7390267;19;20342;-78
2022/02/13 04:33:20;;;;;;;5.07;4.17;;;-0.80;99.90;;;;;;7392894;19;20430;-79
2022/02/13 04:35:46;;;;;;;4.50;4.03;;;-0.80;99.90;;;;;;7389273;19;20343;-77
2022/02/13 04:38:12;;;;;;;5.40;3.88;;;-0.90;99.90;;;;;;7387530;19;20670;-79
2022/02/13 04:40:37;;;;;;;4.90;4.40;;;-0.90;99.90;;;;;;7394630;19;20332;-78
2022/02/13 04:43:03;;;;;;;4.97;4.07;;;-0.90;99.90;;;;;;7395946;19;20736;-80
2022/02/13 04:45:29;;;;;;;4.78;4.38;;;-0.80;99.90;;;;;;7384050;19;20316;-79
2022/02/13 04:47:54;;;;;;;4.73;4.17;;;-0.80;99.90;;;;;;7396822;19;20304;-78
2022/02/13 04:50:23;;;;;;;5.13;4.47;;;-0.80;99.90;;;;;;7396409;19;20344;-79
2022/02/13 04:52:53;;;;;;;5.65;4.13;;;-0.80;99.90;;;;;;7396380;19;20355;-79
2022/02/13 04:55:19;;;;;;;6.25;4.55;;;-0.90;99.90;;;;;;7395269;19;20300;-79
2022/02/13 04:57:45;;;;;;;5.10;4.35;;;-0.80;99.90;;;;;;7390847;19;20622;-80
2022/02/13 05:00:11;;;;;;;4.82;4.30;;;-0.80;99.90;;;;;;7393653;19;20347;-80
2022/02/13 05:02:38;;;;;;;4.90;4.40;;;-0.80;99.90;;;;;;7397368;19;20368;-79
2022/02/13 05:05:04;;;;;;;4.03;3.72;;;-0.80;99.90;;;;;;7390967;19;20863;-78
2022/02/13 05:07:30;;;;;;;4.80;3.90;;;-0.90;99.90;;;;;;7391726;19;20380;-79
2022/02/13 05:09:56;;;;;;;5.17;4.40;;;-0.90;99.90;;;;;;7395716;19;20353;-79
2022/02/13 05:12:22;;;;;;;5.80;4.47;;;-0.80;99.90;;;;;;7393399;19;20321;-78
2022/02/13 05:14:48;;;;;;;4.82;4.10;;;-0.80;99.90;;;;;;7393460;19;20871;-81
2022/02/13 05:17:14;;;;;;;4.78;4.00;;;-0.80;99.90;;;;;;7392938;19;20359;-79
2022/02/13 05:19:40;;;;;;;5.82;4.00;;;-0.80;99.90;;;;;;7395875;19;20317;-80
2022/02/13 05:22:06;;;;;;;4.93;4.00;;;-0.80;99.90;;;;;;7397280;19;20357;-79
2022/02/13 05:24:36;;;;;;;4.57;4.07;;;-0.70;99.90;;;;;;7392721;19;20317;-82
2022/02/13 05:27:05;;;;;;;4.50;4.05;;;-0.70;99.90;;;;;;7392576;19;20317;-84
2022/02/13 05:29:31;;;;;;;4.50;4.10;;;-0.70;99.90;;;;;;7394730;19;20851;-79
2022/02/13 05:31:57;;;;;;;5.05;4.32;;;-0.70;99.90;;;;;;7391175;19;20324;-81
2022/02/13 05:34:22;;;;;;;4.90;4.32;;;-0.60;99.90;;;;;;7392560;19;20363;-77
2022/02/13 05:36:48;;;;;;;4.60;3.95;;;-0.60;99.90;;;;;;7396597;19;21033;-78
2022/02/13 05:39:15;;;;;;;5.40;4.00;;;-0.60;99.90;;;;;;7393028;19;20316;-78
2022/02/13 05:41:41;;;;;;;4.75;4.18;;;-0.60;99.90;;;;;;7394364;19;20329;-78
2022/02/13 05:44:07;;;;;;;5.22;4.47;;;-0.60;99.90;;;;;;7397182;19;20320;-81
2022/02/13 05:46:33;;;;;;;6.20;4.30;;;-0.60;99.90;;;;;;7395041;19;20352;-83
2022/02/13 05:48:59;;;;;;;3.97;3.58;;;-0.60;99.90;;;;;;7396543;19;20328;-79
2022/02/13 05:51:26;;;;;;;3.97;3.65;;;-0.70;99.90;;;;;;7394838;19;21381;-78
2022/02/13 05:53:53;;;;;;;5.37;4.17;;;-0.50;99.90;;;;;;7395896;19;20345;-79
2022/02/13 05:56:19;;;;;;;7.35;4.75;;;-0.60;99.90;;;;;;7397066;19;20348;-82
2022/02/13 05:58:46;;;;;;;4.55;4.05;;;-0.60;99.90;;;;;;7393634;19;20317;-79
2022/02/13 06:01:14;;;;;;;5.22;3.90;;;-0.50;99.90;;;;;;7392699;19;20365;-80
2022/02/13 06:03:40;;;;;;;4.57;4.13;;;-0.30;99.90;;;;;;7396954;19;20847;-79
2022/02/13 06:06:06;;;;;;;4.18;3.78;;;-0.40;99.90;;;;;;7396055;19;20336;-80
2022/02/13 06:08:32;;;;;;;4.78;3.97;;;-0.40;99.90;;;;;;7396097;19;20392;-79
2022/02/13 06:10:58;;;;;;;4.80;4.25;;;-0.40;99.90;;;;;;7397769;19;20342;-80
2022/02/13 06:13:23;;;;;;;4.97;4.30;;;-0.40;99.90;;;;;;7396941;19;20673;-79
2022/02/13 06:15:49;;;;;;;8.77;4.40;;;-0.40;99.90;;;;;;7392842;19;20364;-81
2022/02/13 06:18:15;;;;;;;4.70;4.20;;;-0.40;99.90;;;;;;7396485;19;20340;-82
2022/02/13 06:20:41;;;;;;;4.30;3.90;;;-0.40;99.90;;;;;;7394856;19;20791;-79
2022/02/13 06:23:08;;;;;;;5.20;3.88;;;-0.40;99.90;;;;;;7395210;19;20317;-79
2022/02/13 06:25:34;;;;;;;4.78;3.80;;;-0.40;99.90;;;;;;7395930;19;20301;-80
2022/02/13 06:28:00;;;;;;;3.80;3.50;;;-0.40;99.90;;;;;;7389827;19;20317;-81
2022/02/13 06:30:26;;;;;;;4.78;4.28;;;-0.40;99.90;;;;;;7376113;19;20379;-78
2022/02/13 06:32:51;;;;;;;6.63;4.10;;;-0.40;99.90;;;;;;7387909;19;21030;-78
2022/02/13 06:35:18;;;;;;;4.73;4.00;;;-0.30;99.90;;;;;;7387729;19;20340;-77
2022/02/13 06:37:43;;;;;;;4.65;4.13;;;-0.30;99.90;;;;;;7387349;19;20420;-79
2022/02/13 06:40:09;;;;;;;4.57;4.13;;;-0.30;99.90;;;;;;7390842;19;20357;-79
2022/02/13 06:42:35;;;;;;;4.05;3.63;;;-0.40;99.90;;;;;;7390535;19;20328;-79
2022/02/13 06:45:01;;;;;;;5.47;4.00;;;-0.20;99.90;;;;;;7392675;19;20304;-78
2022/02/13 06:47:26;;;;;;;4.00;3.70;;;-0.40;99.90;;;;;;7393080;19;20348;-78
2022/02/13 06:49:52;;;;;;;6.93;4.18;;;-0.40;99.90;;;;;;7390389;19;20369;-78
2022/02/13 06:52:18;;;;;;;6.10;4.10;;;-0.40;99.90;;;;;;7391500;19;20341;-79
2022/02/13 06:54:44;;;;;;;4.75;4.05;;;-0.40;99.90;;;;;;7389431;19;20351;-77
2022/02/13 06:57:10;;;;;;;4.53;3.80;;;-0.40;99.90;;;;;;7384253;19;20324;-77
2022/02/13 06:59:36;;;;;;;5.03;4.13;;;-0.30;99.90;;;;;;7389998;19;20345;-79
2022/02/13 07:02:02;;;;;;;4.30;3.88;;;-0.20;99.90;;;;;;7390151;19;20360;-78
2022/02/13 07:04:28;;;;;;;4.90;4.07;;;-0.20;99.90;;;;;;7391027;19;20658;-77
2022/02/13 07:06:54;;;;;;;5.15;4.43;;;-0.10;99.90;;;;;;7374073;19;20361;-78
2022/02/13 07:09:19;;;;;;;5.47;4.00;;;-0.10;99.90;;;;;;7388103;19;20345;-77
2022/02/13 07:11:45;;;;;;;4.60;4.20;;;0.00;99.90;;;;;;7395400;19;20328;-79
2022/02/13 07:14:12;;;;;;;3.92;3.53;;;0.00;99.90;;;;;;7391318;19;20381;-81
2022/02/13 07:16:38;;;;;;;6.75;3.90;;;-0.10;99.90;;;;;;7390795;19;20337;-78
2022/02/13 07:19:04;;;;;;;4.10;3.70;;;0.10;99.90;;;;;;7392042;19;20321;-77
2022/02/13 07:21:30;;;;;;;5.32;4.05;;;0.10;99.90;;;;;;7392680;19;20321;-78
2022/02/13 07:23:55;;;;;;;4.50;3.97;;;0.00;99.90;;;;;;7394602;19;20312;-78
2022/02/13 07:26:24;;;;;;;4.00;3.60;;;0.10;99.90;;;;;;7391682;19;20345;-76
2022/02/13 07:28:58;;;;;;;4.10;3.70;;;0.10;99.90;;;;;;7393132;19;20351;-77
2022/02/13 07:31:28;;;;;;;5.43;4.47;;;0.20;99.90;;;;;;7394342;19;20886;-81
2022/02/13 07:33:54;;;;;;;4.97;4.47;;;0.20;99.90;;;;;;7397081;19;20357;-77
2022/02/13 07:36:20;;;;;;;3.70;3.40;;;0.20;99.90;;;;;;7390678;19;20320;-78
2022/02/13 07:38:46;;;;;;;4.95;3.83;;;0.30;99.90;;;;;;7398795;19;20328;-81
2022/02/13 07:41:28;;;;;;;5.18;3.70;;;0.30;99.90;;;;;;7394711;19;20348;-80
2022/02/13 07:44:01;;;;;;;4.10;3.60;;;0.40;99.90;;;;;;7380162;19;20847;-81
2022/02/13 07:46:30;;;;;;;6.45;4.30;;;0.50;99.90;;;;;;7379728;19;20332;-79
2022/02/13 07:48:56;;;;;;;4.05;3.67;;;0.50;99.90;;;;;;7387858;19;20320;-77
2022/02/13 07:51:22;;;;;;;4.30;3.53;;;0.60;99.90;;;;;;7386758;19;20416;-79
2022/02/13 07:53:48;;;;;;;5.05;3.92;;;0.60;99.90;;;;;;7394793;19;20670;-79
2022/02/13 07:56:16;;;;;;;4.93;3.50;;;0.70;99.90;;;;;;7401394;19;20348;-79
2022/02/13 07:58:42;;;;;;;3.95;3.55;;;0.70;99.90;;;;;;7401567;19;20395;-78
2022/02/13 08:01:08;;;;;;;3.60;3.30;;;0.80;99.90;;;;;;7402203;19;20356;-78
2022/02/13 08:03:39;;;;;;;4.50;4.00;;;0.80;99.90;;;;;;7385773;19;20313;-79
2022/02/13 08:06:09;;;;;;;4.38;3.83;;;0.90;99.90;;;;;;7373905;19;20425;-79
2022/02/13 08:08:40;;;;;;;4.03;3.65;;;0.90;99.90;;;;;;7361823;19;20411;-80
2022/02/13 08:11:10;;;;;;;5.63;4.35;;;1.00;99.90;;;;;;7396722;19;20321;-79
2022/02/13 08:13:37;;;;;;;5.38;3.63;;;1.00;99.90;;;;;;7371454;19;20304;-79
2022/02/13 08:16:06;;;;;;;3.90;3.50;;;1.00;99.90;;;;;;7372154;19;20316;-79
2022/02/13 08:18:32;;;;;;;4.05;3.65;;;1.10;99.90;;;;;;7400931;19;20304;-78
2022/02/13 08:20:59;;;;;;;4.72;4.20;;;1.10;99.90;;;;;;7403391;19;20357;-79
2022/02/13 08:23:36;;;;;;;4.03;3.65;;;1.20;99.90;;;;;;7360125;19;20432;-78
2022/02/13 08:26:13;;;;;;;4.20;3.78;;;1.20;99.90;;;;;;7363957;19;20356;-78
2022/02/13 08:28:40;;;;;;;5.15;3.92;;;1.30;99.90;;;;;;7333093;19;20341;-79
2022/02/13 08:31:06;;;;;;;3.83;3.53;;;1.40;99.90;;;;;;7404540;19;20308;-79
2022/02/13 08:33:32;;;;;;;4.03;3.63;;;1.40;99.90;;;;;;7394270;19;20355;-79
2022/02/13 08:36:18;;;;;;;5.15;3.88;;;1.50;99.90;;;;;;7400539;19;20330;-79
2022/02/13 08:38:45;;;;;;;6.13;4.07;;;1.60;99.90;;;;;;7396832;19;21139;-79
2022/02/13 08:41:11;;;;;;;5.38;4.10;;;1.60;99.90;;;;;;7391410;19;20400;-79
2022/02/13 08:43:37;;;;;;;5.03;4.53;;;1.70;99.90;;;;;;7390534;19;20337;-78
2022/02/13 08:46:02;;;;;;;5.33;4.43;;;1.80;99.90;;;;;;7394131;19;20721;-77
2022/02/13 08:48:28;;;;;;;5.97;4.13;;;1.80;99.90;;;;;;7398229;19;20324;-79
2022/02/13 08:50:54;;;;;;;6.38;4.97;;;1.90;99.90;;;;;;7399053;19;20360;-78
2022/02/13 08:53:20;;;;;;;4.80;4.10;;;2.00;99.90;;;;;;7390012;19;20332;-78
2022/02/13 08:55:46;;;;;;;4.75;4.00;;;2.00;99.90;;;;;;7396751;19;20352;-79
2022/02/13 08:58:12;;;;;;;3.70;3.40;;;2.10;99.90;;;;;;7389810;19;20352;-78
2022/02/13 09:00:38;;;;;;;3.67;3.37;;;2.20;99.90;;;;;;7390619;19;20396;-79
2022/02/13 09:03:03;;;;;;;4.07;3.67;;;2.20;99.90;;;;;;7374294;19;20317;-80
2022/02/13 09:05:29;;;;;;;4.15;3.65;;;2.30;99.90;;;;;;7397271;19;20329;-79
2022/02/13 09:07:55;;;;;;;3.93;3.30;;;2.40;99.90;;;;;;7392193;19;20317;-78
2022/02/13 09:10:21;;;;;;;4.07;3.30;;;2.60;99.90;;;;;;7396893;19;20438;-79
2022/02/13 09:12:47;;;;;;;4.15;3.75;;;2.60;99.90;;;;;;7394675;19;20317;-78
2022/02/13 09:15:14;;;;;;;8.48;4.18;;;2.60;99.90;;;;;;7388807;19;20308;-79
2022/02/13 09:17:40;;;;;;;3.23;2.93;;;2.70;99.90;;;;;;7393955;19;20369;-80
2022/02/13 09:20:07;;;;;;;4.23;3.40;;;2.90;99.90;;;;;;7391986;19;20365;-78
2022/02/13 09:22:33;;;;;;;5.47;4.53;;;2.90;99.90;;;;;;7389399;19;20349;-79
2022/02/13 09:24:58;;;;;;;3.38;2.88;;;3.00;99.90;;;;;;7389659;19;20353;-79
2022/02/13 09:27:24;;;;;;;3.23;2.90;;;2.90;99.90;;;;;;7392590;19;20337;-79
2022/02/13 09:29:52;;;;;;;4.15;3.47;;;3.10;99.90;;;;;;7396017;19;20874;-79
2022/02/13 09:32:18;;;;;;;4.55;3.70;;;3.20;99.90;;;;;;7404726;19;20365;-80
2022/02/13 09:34:44;;;;;;;4.35;3.25;;;3.30;99.90;;;;;;7401698;19;20359;-79
2022/02/13 09:37:10;;;;;;;5.03;3.78;;;3.30;99.90;;;;;;7391747;19;20353;-79
2022/02/13 09:39:36;;;;;;;3.40;3.10;;;3.40;99.90;;;;;;7370407;19;20328;-79
2022/02/13 09:42:03;;;;;;;3.10;2.83;;;3.50;99.90;;;;;;7383105;19;20384;-79
2022/02/13 09:44:29;;;;;;;10.67;5.10;;;3.60;99.90;;;;;;7383345;19;20381;-79
2022/02/13 09:46:55;;;;;;;3.72;2.92;;;3.60;99.90;;;;;;7387066;19;20416;-79
2022/02/13 09:49:22;;;;;;;7.18;5.07;;;3.60;99.90;;;;;;7387357;19;20345;-80
2022/02/13 09:51:48;;;;;;;4.20;3.60;;;3.70;99.90;;;;;;7388914;19;20324;-79
2022/02/13 09:54:14;;;;;;;3.83;2.80;;;3.80;99.90;;;;;;7385915;19;20348;-78
2022/02/13 09:56:41;;;;;;;3.13;2.50;;;3.90;99.90;;;;;;7386277;19;20395;-79
2022/02/13 09:59:08;;;;;;;3.07;2.50;;;4.00;99.90;;;;;;7387376;19;20392;-79
2022/02/13 10:01:36;;;;;;;4.63;3.83;;;4.10;99.90;;;;;;7385141;19;20852;-79
2022/02/13 10:04:02;;;;;;;3.05;2.75;;;4.20;99.90;;;;;;7388931;19;20361;-78
2022/02/13 10:06:28;;;;;;;3.38;2.80;;;4.30;99.90;;;;;;7385771;19;20366;-79
2022/02/13 10:08:55;;;;;;;2.88;2.67;;;4.40;99.90;;;;;;7363757;19;20384;-78
2022/02/13 10:11:28;;;;;;;3.43;2.63;;;4.50;99.90;;;;;;7397015;19;20333;-78
2022/02/13 10:14:11;;;;;;;2.95;2.75;;;4.60;99.90;;;;;;7390886;19;20438;-79
2022/02/13 10:16:42;;;;;;;2.83;2.40;;;4.50;99.90;;;;;;7284353;19;2004521;-78
2022/02/13 10:19:19;;;;;;;3.70;3.20;;;4.80;99.90;;;;;;7368200;19;20336;-80
2022/02/13 10:21:58;;;;;;;2.95;2.65;;;4.80;99.90;;;;;;7390685;19;20331;-79
2022/02/13 10:25:27;;;;;;;5.13;3.50;;;4.70;99.90;;;;;;7389824;19;20349;-79
2022/02/13 10:29:06;;;;;;;4.03;2.78;;;4.90;99.90;;;;;;7240104;19;2004455;-79
2022/02/13 10:33:00;;;;;;;6.63;4.45;;;5.20;99.90;;;;;;7185247;19;2004424;-79
2022/02/13 10:39:57;;;;;;;3.27;2.73;;;5.30;99.90;;;;;;7373437;19;20356;-79
2022/02/13 10:47:01;;;;;;;3.10;2.63;;;5.50;99.90;;;;;;7396347;19;20795;-79
2022/02/13 10:54:25;;;;;;;7.90;3.90;;;5.60;99.90;;;;;;7397226;19;20340;-80
2022/02/13 11:01:59;;;;;;;5.05;3.30;;;5.90;99.90;;;;;;7341257;19;20465;-79
2022/02/13 11:04:59;;;;;;;4.10;3.50;;;6.00;99.90;;;;;;7394216;19;20418;-78
2022/02/13 11:07:56;;;;;;;3.70;3.35;;;6.10;99.90;;;;;;7372676;19;20687;-78
2022/02/13 11:10:34;;;;;;;6.68;4.47;;;6.20;99.90;;;;;;7386975;19;20340;-78
2022/02/13 11:13:04;;;;;;;4.40;2.80;;;6.20;99.90;;;;;;7380626;19;20328;-79
2022/02/13 11:15:34;;;;;;;3.03;2.50;;;6.40;99.90;;;;;;7383304;19;20360;-79
2022/02/13 11:18:08;;;;;;;2.53;2.22;;;6.50;99.90;;;;;;7386082;19;20316;-78
2022/02/13 11:20:36;;;;;;;2.45;2.25;;;6.50;99.90;;;;;;7384723;19;20355;-79
2022/02/13 11:23:21;;;;;;;3.25;2.95;;;6.60;99.90;;;;;;7378040;19;20316;-78
2022/02/13 11:25:58;;;;;;;2.83;2.60;;;6.70;99.90;;;;;;7379182;19;20353;-80
2022/02/13 11:28:49;;;;;;;2.60;2.40;;;6.90;99.90;;;;;;7383860;19;20891;-79
2022/02/13 11:31:42;;;;;;;2.72;2.53;;;7.00;99.90;;;;;;7280565;19;2004443;-79
2022/02/13 11:34:16;;;;;;;3.33;2.53;;;7.10;99.90;;;;;;7277377;19;2006403;-79
2022/02/13 11:36:49;;;;;;;4.68;3.42;;;7.30;99.90;;;;;;7381118;19;21147;-79
2022/02/13 11:39:36;;;;;;;2.35;2.13;;;7.40;99.90;;;;;;7383955;19;20355;-78
2022/02/13 11:42:21;;;;;;;2.80;2.35;;;7.30;99.90;;;;;;7381036;19;20336;-79
2022/02/13 11:44:50;;;;;;;3.25;2.70;;;7.50;99.90;;;;;;7381959;19;20364;-78
2022/02/13 11:47:18;;;;;;;3.05;2.75;;;7.70;99.90;;;;;;7382669;19;20420;-79
2022/02/13 11:50:11;;;;;;;2.92;2.50;;;7.90;99.90;;;;;;7379813;19;20324;-79
2022/02/13 11:52:39;;;;;;;4.22;2.20;;;8.00;99.90;;;;;;7386314;19;20858;-79
2022/02/13 11:55:06;;;;;;;2.47;2.28;;;8.10;99.90;;;;;;7389507;19;20324;-79
2022/02/13 11:57:35;;;;;;;3.60;2.73;;;8.30;99.90;;;;;;7384974;19;20859;-78
2022/02/13 12:00:03;;;;;;;2.30;2.10;;;8.40;99.90;;;;;;7380831;19;20323;-79
2022/02/13 12:02:42;;;;;;;2.85;2.20;;;8.40;99.90;;;;;;7389841;19;20405;-79
2022/02/13 12:05:09;;;;;;;2.43;2.10;;;8.50;99.90;;;;;;7390114;19;20352;-79
2022/02/13 12:07:55;;;;;;;2.13;1.93;;;8.50;99.90;;;;;;7385601;19;20342;-78
2022/02/13 12:10:33;;;;;;;2.15;1.95;;;8.40;99.90;;;;;;7381734;19;20423;-78
2022/02/13 12:13:15;;;;;;;2.83;2.20;;;8.30;99.90;;;;;;7382796;19;20344;-79
2022/02/13 12:16:02;;;;;;;2.17;1.98;;;8.50;99.90;;;;;;7380212;19;20855;-79
2022/02/13 12:18:28;;;;;;;3.58;2.22;;;8.50;99.90;;;;;;7280776;19;2019823;-79
2022/02/13 12:21:00;;;;;;;2.33;2.13;;;8.70;99.90;;;;;;7380998;19;20332;-78
2022/02/13 12:23:26;;;;;;;2.20;2.00;;;8.90;99.90;;;;;;7384526;19;20349;-79
2022/02/13 12:25:52;;;;;;;2.38;2.17;;;8.80;99.90;;;;;;7383723;19;20316;-80
2022/02/13 12:28:19;;;;;;;2.10;1.90;;;8.90;99.90;;;;;;7383256;19;20400;-79
2022/02/13 12:30:53;;;;;;;2.10;1.88;;;8.90;99.90;;;;;;7378643;19;20385;-80
2022/02/13 12:33:22;;;;;;;2.20;1.88;;;8.70;99.90;;;;;;7380185;19;20362;-79
2022/02/13 12:35:49;;;;;;;2.20;1.90;;;8.50;99.90;;;;;;7380792;19;20357;-79
2022/02/13 12:38:14;;;;;;;2.25;2.05;;;8.70;99.90;;;;;;7380946;19;20369;-79
2022/02/13 12:40:44;;;;;;;2.50;2.30;;;8.70;99.90;;;;;;7378553;19;20344;-79
2022/02/13 12:43:16;;;;;;;2.50;2.30;;;8.80;99.90;;;;;;7387634;19;20329;-79
2022/02/13 12:45:43;;;;;;;3.10;2.50;;;8.80;99.90;;;;;;7383680;19;20320;-79
2022/02/13 12:48:11;;;;;;;4.67;2.60;;;8.80;99.90;;;;;;7379240;19;20360;-79
2022/02/13 12:50:41;;;;;;;2.08;1.98;;;8.90;99.90;;;;;;7370754;19;20723;-79
2022/02/13 12:53:26;;;;;;;3.13;1.83;;;8.80;99.90;;;;;;7380562;19;20316;-79
2022/02/13 12:55:55;;;;;;;2.10;1.90;;;9.00;99.90;;;;;;7276296;19;2008263;-80
2022/02/13 12:58:21;;;;;;;1.75;1.65;;;9.20;99.90;;;;;;7382438;19;20313;-80
2022/02/13 13:00:51;;;;;;;1.83;1.70;;;9.30;99.90;;;;;;7387572;19;20308;-81
2022/02/13 13:03:36;;;;;;;3.00;1.88;;;9.40;99.90;;;;;;7391608;19;20324;-81
2022/02/13 13:06:02;;;;;;;1.58;1.48;;;9.50;99.90;;;;;;7391751;19;20373;-80
2022/02/13 13:08:38;;;;;;;2.67;2.25;;;9.50;99.90;;;;;;7392526;19;20426;-79
2022/02/13 13:11:05;;;;;;;2.55;1.92;;;9.30;98.80;;;;;;7392350;19;20320;-80
2022/02/13 13:13:35;;;;;;;4.00;3.17;;;9.20;99.50;;;;;;7389071;19;20336;-79
2022/02/13 13:16:24;;;;;;;2.15;1.95;;;9.30;99.90;;;;;;7393975;19;20357;-79
2022/02/13 13:18:53;;;;;;;2.60;2.40;;;9.30;99.90;;;;;;7389669;19;20341;-81